Time;durP1;ratioP1;P1;durP2;ratioP2;P2;SDS_P1;SDS_P2;PMS_P1;PMS_P2;Temp;Humidity;BMP_temperature;BMP_pressure;BME280_temperature;BME280_humidity;BME280_pressure;Samples;Min_cycle;Max_cycle;Signal;HPM_P1;HPM_P2
2023/08/27 00:02:07;;;;;;;1.60;1.42;;;19.40;69.00;;;;;;4896824;29;20481;-74
2023/08/27 00:04:33;;;;;;;1.23;1.13;;;19.40;69.00;;;;;;4912729;29;20112;-76
2023/08/27 00:06:59;;;;;;;1.23;1.13;;;19.40;69.00;;;;;;4881147;29;20078;-75
2023/08/27 00:09:24;;;;;;;1.25;1.15;;;19.40;69.00;;;;;;4913137;29;20052;-75
2023/08/27 00:11:50;;;;;;;1.70;1.40;;;19.40;69.70;;;;;;4897245;29;20069;-76
2023/08/27 00:14:16;;;;;;;1.35;1.20;;;19.40;69.10;;;;;;4915519;29;20494;-74
2023/08/27 00:16:41;;;;;;;0.95;0.95;;;19.40;69.10;;;;;;4883982;29;20044;-74
2023/08/27 00:19:07;;;;;;;1.42;1.33;;;19.30;69.10;;;;;;4900694;29;20355;-75
2023/08/27 00:21:33;;;;;;;1.30;1.20;;;19.30;69.10;;;;;;4899714;29;20438;-76
2023/08/27 00:23:59;;;;;;;1.48;1.20;;;19.30;69.20;;;;;;4900598;29;20044;-75
2023/08/27 00:26:24;;;;;;;1.10;1.00;;;19.30;69.20;;;;;;4900736;29;20032;-75
2023/08/27 00:28:50;;;;;;;1.45;1.25;;;19.30;69.20;;;;;;4899804;29;20526;-77
2023/08/27 00:31:16;;;;;;;1.40;1.27;;;19.30;69.20;;;;;;4899738;29;20047;-75
2023/08/27 00:33:42;;;;;;;1.63;1.20;;;19.30;69.20;;;;;;4900472;29;20489;-75
2023/08/27 00:36:08;;;;;;;1.30;1.20;;;19.30;69.30;;;;;;4899633;29;20033;-75
2023/08/27 00:38:34;;;;;;;1.30;1.20;;;19.30;69.30;;;;;;4900318;29;20087;-75
2023/08/27 00:41:00;;;;;;;1.40;1.20;;;19.20;69.30;;;;;;4899430;29;20389;-75
2023/08/27 00:43:26;;;;;;;2.03;1.27;;;19.20;69.30;;;;;;4899597;29;20036;-75
2023/08/27 00:45:51;;;;;;;1.40;1.30;;;19.20;69.30;;;;;;4915911;29;20041;-75
2023/08/27 00:48:17;;;;;;;1.30;1.20;;;19.20;69.40;;;;;;4899640;29;20371;-74
2023/08/27 00:50:44;;;;;;;1.20;1.10;;;19.20;69.40;;;;;;4915837;29;20044;-75
2023/08/27 00:53:11;;;;;;;1.33;1.23;;;19.20;69.40;;;;;;4900075;29;20051;-75
2023/08/27 00:55:37;;;;;;;1.38;1.27;;;19.20;69.40;;;;;;4883790;29;20043;-75
2023/08/27 00:58:04;;;;;;;1.63;1.40;;;19.20;69.40;;;;;;4899357;29;20044;-77
2023/08/27 01:00:29;;;;;;;1.38;1.27;;;19.20;69.40;;;;;;4899088;29;20040;-75
2023/08/27 01:02:55;;;;;;;1.20;1.10;;;19.20;69.40;;;;;;4883639;29;20151;-75
2023/08/27 01:05:24;;;;;;;1.45;1.15;;;19.20;69.50;;;;;;4899046;29;20494;-76
2023/08/27 01:08:00;;;;;;;1.20;1.10;;;19.10;69.50;;;;;;4899239;29;20024;-75
2023/08/27 01:10:44;;;;;;;1.20;1.10;;;19.10;69.50;;;;;;4899136;29;20071;-75
2023/08/27 01:13:19;;;;;;;1.23;1.13;;;19.10;69.50;;;;;;4914498;29;20037;-75
2023/08/27 01:15:45;;;;;;;;;;;19.10;69.50;;;;;;4899135;29;20072;-76
2023/08/27 01:18:14;;;;;;;1.20;1.10;;;19.00;69.30;;;;;;4883451;29;20272;-74
2023/08/27 01:20:40;;;;;;;1.10;1.00;;;19.00;69.30;;;;;;4898706;29;20072;-74
2023/08/27 01:23:06;;;;;;;1.30;1.17;;;19.10;69.50;;;;;;4898418;29;20032;-75
2023/08/27 01:25:46;;;;;;;1.15;1.05;;;19.00;69.50;;;;;;4898848;29;20040;-74
2023/08/27 01:28:17;;;;;;;0.90;0.90;;;19.00;69.60;;;;;;4898888;29;20154;-75
2023/08/27 01:31:17;;;;;;;1.15;1.05;;;19.00;69.60;;;;;;4898869;29;20041;-75
2023/08/27 01:33:49;;;;;;;1.00;1.00;;;19.00;69.60;;;;;;4868711;29;20513;-82
2023/08/27 01:36:18;;;;;;;1.17;1.08;;;19.00;69.60;;;;;;4868885;29;20412;-75
2023/08/27 01:38:44;;;;;;;1.20;1.10;;;19.00;69.60;;;;;;4898658;29;20033;-75
2023/08/27 01:41:10;;;;;;;1.35;1.08;;;19.00;69.60;;;;;;4898707;29;20046;-76
2023/08/27 01:43:36;;;;;;;1.13;1.05;;;19.00;69.60;;;;;;4898524;29;20091;-76
2023/08/27 01:46:03;;;;;;;1.35;1.25;;;18.90;69.60;;;;;;4898359;29;20043;-75
2023/08/27 01:48:29;;;;;;;1.02;1.00;;;18.90;69.60;;;;;;4899073;29;20037;-79
2023/08/27 01:50:55;;;;;;;1.17;1.00;;;18.90;69.60;;;;;;4898249;29;20049;-75
2023/08/27 01:53:22;;;;;;;1.25;1.10;;;18.90;69.60;;;;;;4883213;29;20033;-83
2023/08/27 01:55:47;;;;;;;1.80;1.20;;;18.90;69.70;;;;;;4898236;29;20441;-77
2023/08/27 01:58:13;;;;;;;1.00;0.98;;;18.90;69.60;;;;;;4914073;29;20035;-84
2023/08/27 02:00:39;;;;;;;1.85;1.10;;;18.90;69.70;;;;;;4883503;29;20127;-78
2023/08/27 02:03:06;;;;;;;1.20;1.10;;;18.90;69.70;;;;;;4882827;29;20056;-82
2023/08/27 02:05:33;;;;;;;1.10;1.00;;;18.90;69.70;;;;;;4898790;29;20049;-75
2023/08/27 02:07:59;;;;;;;1.15;1.08;;;18.90;69.70;;;;;;4898251;29;20051;-75
2023/08/27 02:10:25;;;;;;;1.27;1.17;;;18.90;69.70;;;;;;4898196;29;20431;-75
2023/08/27 02:12:50;;;;;;;0.88;0.88;;;18.90;69.70;;;;;;4897481;29;20474;-75
2023/08/27 02:15:16;;;;;;;1.20;1.10;;;18.80;69.70;;;;;;4912991;29;20057;-76
2023/08/27 02:17:42;;;;;;;1.50;1.00;;;18.80;69.70;;;;;;4882156;29;20119;-76
2023/08/27 02:20:09;;;;;;;1.25;1.15;;;18.80;69.70;;;;;;4898350;29;20041;-76
2023/08/27 02:22:36;;;;;;;1.38;1.27;;;18.80;69.80;;;;;;4897802;29;20084;-75
2023/08/27 02:25:02;;;;;;;1.33;1.23;;;18.80;69.70;;;;;;4897715;29;20052;-75
2023/08/27 02:27:28;;;;;;;0.90;0.90;;;18.70;69.70;;;;;;4897831;29;20065;-76
2023/08/27 02:29:55;;;;;;;1.20;1.10;;;18.80;69.80;;;;;;4899049;29;20040;-75
2023/08/27 02:32:22;;;;;;;1.17;1.10;;;18.70;69.80;;;;;;4897842;29;20055;-76
2023/08/27 02:34:49;;;;;;;1.40;1.23;;;18.80;69.80;;;;;;4913129;29;20100;-76
2023/08/27 02:37:15;;;;;;;1.30;1.20;;;18.70;69.80;;;;;;4881787;29;20037;-75
2023/08/27 02:39:41;;;;;;;1.20;1.10;;;18.80;69.90;;;;;;4897844;29;20040;-75
2023/08/27 02:42:07;;;;;;;1.05;0.90;;;18.80;69.90;;;;;;4897451;29;20490;-75
2023/08/27 02:44:32;;;;;;;1.52;1.13;;;18.80;69.90;;;;;;4913240;29;20169;-76
2023/08/27 02:46:58;;;;;;;1.38;1.20;;;18.70;69.80;;;;;;4897461;29;20482;-75
2023/08/27 02:49:24;;;;;;;0.90;0.90;;;18.70;69.80;;;;;;4897576;29;20036;-75
2023/08/27 02:51:50;;;;;;;1.42;1.30;;;18.70;69.80;;;;;;4897409;29;20044;-75
2023/08/27 02:54:15;;;;;;;1.10;1.00;;;18.70;69.90;;;;;;4898095;29;20087;-76
2023/08/27 02:56:41;;;;;;;1.27;1.17;;;18.70;69.90;;;;;;4898399;29;20064;-75
2023/08/27 02:59:07;;;;;;;1.40;1.30;;;18.70;69.90;;;;;;4898150;29;20131;-76
2023/08/27 03:01:32;;;;;;;1.20;1.10;;;18.70;69.90;;;;;;4897966;29;20045;-75
2023/08/27 03:03:58;;;;;;;1.10;1.00;;;18.70;69.90;;;;;;4897282;29;20132;-75
2023/08/27 03:06:24;;;;;;;1.40;1.20;;;18.60;69.80;;;;;;4897504;29;20040;-75
2023/08/27 03:08:49;;;;;;;1.20;1.10;;;18.60;69.80;;;;;;4897227;29;20398;-75
2023/08/27 03:11:15;;;;;;;1.27;1.10;;;18.60;69.90;;;;;;4882490;29;20045;-75
2023/08/27 03:13:41;;;;;;;1.10;1.00;;;18.60;69.90;;;;;;4912730;29;20092;-75
2023/08/27 03:16:07;;;;;;;1.40;1.30;;;18.60;69.90;;;;;;4896709;29;20499;-76
2023/08/27 03:18:33;;;;;;;1.42;1.33;;;18.60;70.00;;;;;;4881659;29;20069;-75
2023/08/27 03:20:58;;;;;;;1.50;1.20;;;18.60;70.00;;;;;;4896832;29;20052;-76
2023/08/27 03:23:24;;;;;;;1.20;1.13;;;18.60;70.00;;;;;;4881662;29;20033;-75
2023/08/27 03:25:50;;;;;;;2.45;1.20;;;18.60;70.00;;;;;;4897111;29;20033;-76
2023/08/27 03:28:16;;;;;;;1.20;1.10;;;18.60;70.00;;;;;;4897833;29;20033;-77
2023/08/27 03:30:42;;;;;;;1.10;1.00;;;18.50;70.00;;;;;;4897093;29;20147;-76
2023/08/27 03:33:07;;;;;;;1.15;1.00;;;18.50;70.00;;;;;;4897156;29;20052;-76
2023/08/27 03:35:34;;;;;;;1.17;1.08;;;18.50;70.00;;;;;;4912742;29;20056;-75
2023/08/27 03:38:00;;;;;;;1.95;1.10;;;18.50;70.00;;;;;;4897014;29;20474;-76
2023/08/27 03:40:26;;;;;;;1.40;1.30;;;18.50;70.00;;;;;;4897836;29;20041;-75
2023/08/27 03:42:52;;;;;;;1.20;1.02;;;18.50;70.10;;;;;;4897017;29;20470;-76
2023/08/27 03:45:18;;;;;;;1.10;1.00;;;18.50;70.10;;;;;;4897023;29;20051;-74
2023/08/27 03:47:44;;;;;;;1.35;1.20;;;18.50;70.10;;;;;;4899336;29;20540;-75
2023/08/27 03:50:10;;;;;;;1.10;1.00;;;18.50;70.10;;;;;;4885097;29;20036;-75
2023/08/27 03:52:36;;;;;;;1.20;1.10;;;18.50;70.10;;;;;;4900558;29;20036;-74
2023/08/27 03:55:02;;;;;;;1.05;1.00;;;18.50;70.10;;;;;;4901004;29;20473;-75
2023/08/27 03:57:28;;;;;;;1.20;1.10;;;18.50;70.10;;;;;;4900678;29;20158;-75
2023/08/27 03:59:54;;;;;;;0.90;0.90;;;18.50;70.10;;;;;;4900407;29;20033;-75
2023/08/27 04:02:20;;;;;;;1.55;1.23;;;18.50;70.10;;;;;;4884783;29;20045;-75
2023/08/27 04:04:45;;;;;;;1.33;1.10;;;18.50;70.10;;;;;;4900318;29;20036;-74
2023/08/27 04:07:12;;;;;;;1.50;1.27;;;18.50;70.10;;;;;;4901136;29;20045;-75
2023/08/27 04:09:38;;;;;;;1.10;1.00;;;18.50;70.20;;;;;;4900206;29;20038;-74
2023/08/27 04:12:04;;;;;;;1.30;1.20;;;18.40;70.10;;;;;;4915995;29;20131;-75
2023/08/27 04:14:29;;;;;;;1.25;1.15;;;18.50;70.20;;;;;;4885405;29;20535;-75
2023/08/27 04:16:55;;;;;;;1.40;1.10;;;18.50;70.20;;;;;;4916255;29;20148;-75
2023/08/27 04:19:21;;;;;;;1.67;1.27;;;18.40;70.20;;;;;;4900855;29;20041;-74
2023/08/27 04:21:49;;;;;;;1.00;1.00;;;18.40;70.20;;;;;;4899919;29;20043;-75
2023/08/27 04:24:15;;;;;;;1.15;1.05;;;18.40;70.30;;;;;;4900116;29;20367;-75
2023/08/27 04:26:41;;;;;;;1.20;1.10;;;18.40;70.30;;;;;;4915590;29;20093;-74
2023/08/27 04:29:09;;;;;;;1.83;1.45;;;18.40;70.30;;;;;;4900384;29;20048;-75
2023/08/27 04:31:36;;;;;;;1.38;1.27;;;18.40;70.40;;;;;;4899908;29;20096;-75
2023/08/27 04:34:03;;;;;;;1.45;1.23;;;18.40;70.40;;;;;;4900161;29;20036;-75
2023/08/27 04:36:30;;;;;;;1.20;1.10;;;18.40;70.40;;;;;;4915029;29;20092;-75
2023/08/27 04:38:56;;;;;;;1.20;1.10;;;18.40;70.40;;;;;;4899866;29;20040;-75
2023/08/27 04:41:22;;;;;;;1.83;1.30;;;18.40;70.50;;;;;;4899654;29;20401;-74
2023/08/27 04:43:47;;;;;;;1.17;1.08;;;18.40;70.40;;;;;;4899856;29;20029;-74
2023/08/27 04:46:13;;;;;;;1.25;1.15;;;18.40;70.40;;;;;;4899817;29;20053;-75
2023/08/27 04:48:39;;;;;;;2.60;1.40;;;18.40;70.40;;;;;;4899547;29;20040;-76
2023/08/27 04:51:06;;;;;;;1.45;1.15;;;18.40;70.50;;;;;;4915903;29;20112;-75
2023/08/27 04:53:31;;;;;;;1.55;1.10;;;18.40;70.50;;;;;;4899465;29;20047;-75
2023/08/27 04:55:57;;;;;;;1.20;1.13;;;18.40;70.50;;;;;;4883858;29;20553;-75
2023/08/27 04:58:23;;;;;;;2.00;1.33;;;18.40;70.50;;;;;;4882667;29;20131;-75
2023/08/27 05:00:53;;;;;;;1.48;1.27;;;18.40;70.50;;;;;;4899069;29;20040;-74
2023/08/27 05:03:19;;;;;;;1.80;1.38;;;18.30;70.50;;;;;;4899321;29;20115;-76
2023/08/27 05:05:45;;;;;;;1.20;1.10;;;18.40;70.50;;;;;;4915726;29;20486;-75
2023/08/27 05:08:10;;;;;;;1.30;1.10;;;18.40;70.50;;;;;;4899414;29;20048;-74
2023/08/27 05:10:36;;;;;;;1.35;1.15;;;18.40;70.50;;;;;;4884269;29;20517;-74
2023/08/27 05:13:03;;;;;;;1.20;1.10;;;18.30;70.50;;;;;;4899088;29;20041;-75
2023/08/27 05:15:29;;;;;;;1.20;1.10;;;18.40;70.60;;;;;;4899082;29;20128;-74
2023/08/27 05:17:55;;;;;;;1.67;1.33;;;18.40;70.60;;;;;;4899037;29;20486;-75
2023/08/27 05:20:21;;;;;;;1.52;1.10;;;18.30;70.50;;;;;;4883630;29;20037;-76
2023/08/27 05:22:47;;;;;;;1.20;1.10;;;18.30;70.60;;;;;;4883258;29;20071;-75
2023/08/27 05:25:12;;;;;;;1.35;1.20;;;18.30;70.60;;;;;;4898602;29;20061;-75
2023/08/27 05:27:43;;;;;;;1.92;1.30;;;18.30;70.60;;;;;;4898772;29;20120;-75
2023/08/27 05:30:12;;;;;;;1.08;1.05;;;18.30;70.60;;;;;;4900045;29;20049;-75
2023/08/27 05:32:37;;;;;;;1.27;1.17;;;18.30;70.70;;;;;;4898735;29;20497;-75
2023/08/27 05:35:03;;;;;;;1.20;1.10;;;18.30;70.60;;;;;;4899451;29;20032;-76
2023/08/27 05:37:29;;;;;;;1.20;1.10;;;18.30;70.70;;;;;;4898647;29;20115;-75
2023/08/27 05:39:55;;;;;;;1.33;1.10;;;18.30;70.70;;;;;;4898878;29;20037;-75
2023/08/27 05:42:22;;;;;;;1.10;1.00;;;18.30;70.70;;;;;;4898429;29;20051;-75
2023/08/27 05:44:48;;;;;;;1.15;0.90;;;18.30;70.70;;;;;;4898514;29;20036;-75
2023/08/27 05:47:15;;;;;;;1.85;1.25;;;18.30;70.70;;;;;;4899385;29;20127;-76
2023/08/27 05:49:45;;;;;;;1.35;1.17;;;18.30;70.70;;;;;;4898431;29;20509;-75
2023/08/27 05:52:11;;;;;;;1.38;1.27;;;18.30;70.80;;;;;;4914412;29;20044;-76
2023/08/27 05:54:37;;;;;;;1.20;1.10;;;18.30;70.70;;;;;;4882914;29;20454;-77
2023/08/27 05:57:04;;;;;;;2.38;1.13;;;18.30;70.70;;;;;;4898266;29;20478;-75
2023/08/27 05:59:30;;;;;;;1.00;0.93;;;18.30;70.80;;;;;;4898005;29;20068;-75
2023/08/27 06:01:59;;;;;;;1.10;1.00;;;18.30;70.80;;;;;;4882610;29;20075;-75
2023/08/27 06:04:27;;;;;;;1.05;1.02;;;18.30;70.80;;;;;;4882903;29;20043;-76
2023/08/27 06:06:53;;;;;;;1.10;1.00;;;18.30;70.80;;;;;;4898362;29;20124;-75
2023/08/27 06:09:18;;;;;;;1.20;1.10;;;18.30;70.90;;;;;;4899041;29;20541;-76
2023/08/27 06:11:44;;;;;;;0.93;0.93;;;18.30;70.90;;;;;;4898164;29;20040;-77
2023/08/27 06:14:10;;;;;;;1.20;1.10;;;18.30;70.90;;;;;;4898683;29;20036;-76
2023/08/27 06:16:36;;;;;;;1.10;1.02;;;18.30;70.90;;;;;;4898211;29;20533;-77
2023/08/27 06:19:02;;;;;;;1.50;1.17;;;18.30;70.90;;;;;;4899183;29;20068;-76
2023/08/27 06:21:27;;;;;;;0.98;0.98;;;18.30;70.90;;;;;;4897505;29;20044;-76
2023/08/27 06:23:53;;;;;;;1.63;1.13;;;18.30;70.90;;;;;;4897971;29;20032;-76
2023/08/27 06:26:19;;;;;;;0.90;0.90;;;18.30;71.60;;;;;;4897897;29;20127;-76
2023/08/27 06:28:46;;;;;;;0.85;0.85;;;18.30;71.00;;;;;;4897751;29;20397;-78
2023/08/27 06:31:13;;;;;;;1.27;1.00;;;18.30;71.00;;;;;;4897720;29;20067;-76
2023/08/27 06:33:39;;;;;;;1.20;1.10;;;18.30;71.00;;;;;;4883188;29;20411;-76
2023/08/27 06:36:06;;;;;;;0.80;0.80;;;18.30;71.00;;;;;;4913186;29;20040;-77
2023/08/27 06:38:32;;;;;;;0.98;0.98;;;18.30;71.00;;;;;;4882191;29;20473;-76
2023/08/27 06:40:59;;;;;;;1.10;1.00;;;18.30;71.10;;;;;;4897527;29;20041;-76
2023/08/27 06:43:25;;;;;;;0.90;0.90;;;18.30;71.00;;;;;;4897570;29;20518;-76
2023/08/27 06:45:51;;;;;;;1.10;0.90;;;18.30;71.10;;;;;;4897757;29;20032;-76
2023/08/27 06:48:18;;;;;;;1.10;1.00;;;18.30;71.10;;;;;;4898213;29;20056;-76
2023/08/27 06:50:45;;;;;;;0.90;0.90;;;18.30;71.00;;;;;;4913670;29;20033;-76
2023/08/27 06:53:11;;;;;;;1.10;1.00;;;18.30;71.10;;;;;;4897740;29;20052;-76
2023/08/27 06:55:37;;;;;;;1.20;1.10;;;18.30;71.10;;;;;;4897370;29;20033;-76
2023/08/27 06:58:03;;;;;;;1.20;1.10;;;18.30;71.10;;;;;;4897416;29;20127;-77
2023/08/27 07:00:29;;;;;;;1.15;1.05;;;18.30;71.10;;;;;;4897303;29;20063;-76
2023/08/27 07:02:57;;;;;;;0.98;0.90;;;18.30;71.10;;;;;;4898107;29;20415;-76
2023/08/27 07:05:23;;;;;;;0.95;0.90;;;18.30;71.10;;;;;;4897443;29;20072;-76
2023/08/27 07:07:50;;;;;;;1.05;1.00;;;18.30;71.10;;;;;;4897505;29;20520;-76
2023/08/27 07:10:15;;;;;;;1.10;1.00;;;18.40;71.10;;;;;;4897421;29;20037;-76
2023/08/27 07:12:41;;;;;;;1.60;1.10;;;18.30;71.10;;;;;;4898054;29;20108;-76
2023/08/27 07:15:07;;;;;;;0.90;0.88;;;18.40;71.10;;;;;;4898071;29;20504;-77
2023/08/27 07:17:34;;;;;;;1.02;0.95;;;18.40;71.10;;;;;;4896966;29;20491;-76
2023/08/27 07:20:00;;;;;;;1.25;1.13;;;18.40;71.10;;;;;;4896871;29;20051;-76
2023/08/27 07:22:26;;;;;;;1.00;1.00;;;18.40;71.10;;;;;;4883811;29;20530;-76
2023/08/27 07:24:52;;;;;;;1.10;1.00;;;18.40;71.10;;;;;;4901029;29;20164;-77
2023/08/27 07:27:18;;;;;;;1.48;1.17;;;18.40;71.10;;;;;;4901356;29;20033;-76
2023/08/27 07:29:44;;;;;;;1.20;1.10;;;18.40;71.10;;;;;;4900958;29;20044;-76
2023/08/27 07:32:10;;;;;;;1.02;1.00;;;18.40;71.10;;;;;;4916803;29;20052;-76
2023/08/27 07:34:36;;;;;;;1.10;1.00;;;18.40;71.10;;;;;;4900883;29;20526;-76
2023/08/27 07:37:02;;;;;;;1.40;1.30;;;18.40;71.10;;;;;;4901564;29;20496;-77
2023/08/27 07:39:29;;;;;;;1.00;1.00;;;18.50;71.10;;;;;;4902015;29;20445;-76
2023/08/27 07:41:55;;;;;;;1.30;1.20;;;18.50;71.10;;;;;;4900662;29;20128;-77
2023/08/27 07:44:21;;;;;;;1.13;1.02;;;18.50;71.10;;;;;;4885231;29;20092;-77
2023/08/27 07:46:47;;;;;;;1.10;1.00;;;18.50;71.10;;;;;;4902810;29;20081;-76
2023/08/27 07:49:12;;;;;;;1.33;1.20;;;18.50;71.10;;;;;;4901939;29;20089;-76
2023/08/27 07:51:38;;;;;;;1.27;1.17;;;18.50;71.00;;;;;;4900593;29;20509;-77
2023/08/27 07:54:04;;;;;;;1.40;1.30;;;18.50;71.10;;;;;;4885845;29;20033;-77
2023/08/27 07:56:31;;;;;;;1.30;1.17;;;18.50;71.00;;;;;;4900450;29;20043;-77
2023/08/27 07:58:57;;;;;;;1.10;1.00;;;18.60;71.10;;;;;;4885106;29;20037;-77
2023/08/27 08:01:22;;;;;;;1.00;1.00;;;18.50;71.00;;;;;;4900447;29;20393;-77
2023/08/27 08:03:48;;;;;;;2.13;1.20;;;18.60;71.10;;;;;;4900405;29;20033;-77
2023/08/27 08:06:14;;;;;;;1.20;1.10;;;18.60;71.10;;;;;;4916918;29;20037;-77
2023/08/27 08:08:40;;;;;;;1.10;1.00;;;18.60;71.00;;;;;;4900238;29;20048;-78
2023/08/27 08:11:06;;;;;;;1.30;1.10;;;18.60;71.00;;;;;;4884586;29;20058;-77
2023/08/27 08:13:36;;;;;;;1.23;1.10;;;18.70;71.10;;;;;;4901482;29;20474;-78
2023/08/27 08:16:02;;;;;;;1.33;1.23;;;18.70;71.10;;;;;;4900463;29;20534;-77
2023/08/27 08:18:28;;;;;;;1.30;1.13;;;18.70;71.10;;;;;;4899881;29;20168;-77
2023/08/27 08:20:55;;;;;;;1.45;1.23;;;18.70;71.10;;;;;;4900179;29;20051;-79
2023/08/27 08:23:22;;;;;;;1.20;1.10;;;18.70;71.10;;;;;;4899998;29;20108;-77
2023/08/27 08:25:51;;;;;;;1.23;1.10;;;18.70;71.10;;;;;;4900086;29;20501;-77
2023/08/27 08:28:17;;;;;;;2.35;1.30;;;18.80;71.10;;;;;;4899664;29;20052;-77
2023/08/27 08:30:48;;;;;;;2.08;1.30;;;18.80;71.00;;;;;;4899836;29;20119;-77
2023/08/27 08:33:14;;;;;;;1.10;1.00;;;18.80;71.10;;;;;;4899399;29;20047;-77
2023/08/27 08:35:41;;;;;;;1.45;1.30;;;18.90;71.10;;;;;;4900117;29;20042;-78
2023/08/27 08:38:07;;;;;;;1.80;1.20;;;18.90;71.00;;;;;;4899842;29;20044;-78
2023/08/27 08:40:45;;;;;;;1.35;1.10;;;18.90;70.90;;;;;;4900335;29;20036;-78
2023/08/27 08:43:38;;;;;;;1.50;1.08;;;18.90;71.00;;;;;;4900694;29;20033;-77
2023/08/27 08:46:08;;;;;;;1.10;1.00;;;19.00;70.90;;;;;;4896509;29;20183;-78
2023/08/27 08:48:42;;;;;;;1.23;1.10;;;19.00;70.80;;;;;;4899679;29;20052;-77
2023/08/27 08:51:13;;;;;;;1.63;1.37;;;19.10;70.80;;;;;;4899582;29;20037;-77
2023/08/27 08:53:44;;;;;;;1.77;1.20;;;19.10;70.70;;;;;;4915166;29;20047;-77
2023/08/27 08:56:20;;;;;;;1.42;1.33;;;19.20;70.70;;;;;;4899973;29;20382;-77
2023/08/27 08:58:54;;;;;;;1.23;1.13;;;19.20;71.20;;;;;;4900270;29;20029;-77
2023/08/27 09:01:21;;;;;;;1.43;1.20;;;19.30;70.60;;;;;;4900063;29;20040;-78
2023/08/27 09:03:48;;;;;;;1.20;1.10;;;19.30;70.40;;;;;;4883527;29;20033;-77
2023/08/27 09:06:20;;;;;;;1.23;0.98;;;19.40;70.40;;;;;;4900007;29;20541;-78
2023/08/27 09:08:46;;;;;;;1.25;1.15;;;19.40;70.40;;;;;;4899510;29;20032;-77
2023/08/27 09:11:13;;;;;;;1.30;1.20;;;19.40;70.20;;;;;;4899121;29;20041;-77
2023/08/27 09:13:39;;;;;;;1.20;1.10;;;19.50;70.20;;;;;;4884391;29;20040;-77
2023/08/27 09:16:08;;;;;;;1.50;1.30;;;19.50;70.80;;;;;;4899726;29;20052;-77
2023/08/27 09:18:34;;;;;;;2.10;1.40;;;19.60;70.10;;;;;;4898996;29;20466;-77
2023/08/27 09:21:00;;;;;;;1.30;1.17;;;19.70;70.00;;;;;;4900891;29;20445;-77
2023/08/27 09:23:28;;;;;;;1.23;1.13;;;19.70;69.90;;;;;;4900429;29;20088;-78
2023/08/27 09:25:56;;;;;;;1.30;1.20;;;19.80;69.80;;;;;;4898584;29;20025;-77
2023/08/27 09:28:22;;;;;;;1.10;1.00;;;19.80;69.70;;;;;;4898626;29;20088;-77
2023/08/27 09:30:48;;;;;;;1.40;1.25;;;19.90;69.60;;;;;;4898800;29;20071;-77
2023/08/27 09:33:13;;;;;;;1.58;1.30;;;19.90;69.50;;;;;;4898814;29;20467;-77
2023/08/27 09:35:40;;;;;;;1.40;1.15;;;20.00;69.40;;;;;;4898592;29;20048;-77
2023/08/27 09:38:11;;;;;;;1.25;1.10;;;20.10;69.40;;;;;;4899911;29;20036;-77
2023/08/27 09:40:37;;;;;;;2.08;1.23;;;20.10;69.30;;;;;;4900088;29;20219;-77
2023/08/27 09:43:08;;;;;;;1.23;1.00;;;20.20;69.20;;;;;;4899571;29;20115;-77
2023/08/27 09:45:38;;;;;;;1.80;1.20;;;20.30;69.20;;;;;;4898888;29;20036;-77
2023/08/27 09:48:04;;;;;;;1.00;1.00;;;20.40;69.10;;;;;;4899953;29;20039;-78
2023/08/27 09:50:31;;;;;;;2.00;1.30;;;20.50;69.00;;;;;;4898230;29;20032;-77
2023/08/27 09:53:17;;;;;;;1.15;1.05;;;20.50;68.90;;;;;;4899592;29;20032;-77
2023/08/27 09:55:42;;;;;;;0.90;0.90;;;20.60;68.90;;;;;;4899620;29;20089;-77
2023/08/27 09:58:10;;;;;;;1.10;1.00;;;20.70;68.70;;;;;;4898331;29;20064;-77
2023/08/27 10:00:36;;;;;;;0.85;0.85;;;20.80;68.70;;;;;;4882893;29;20044;-77
2023/08/27 10:03:03;;;;;;;1.23;1.10;;;20.90;68.60;;;;;;4899221;29;20028;-77
2023/08/27 10:05:31;;;;;;;1.27;1.00;;;21.00;69.20;;;;;;4899894;29;20032;-77
2023/08/27 10:08:00;;;;;;;0.95;0.90;;;21.10;68.50;;;;;;4897939;29;20028;-77
2023/08/27 10:10:27;;;;;;;0.90;0.90;;;21.20;68.40;;;;;;4898043;29;20029;-77
2023/08/27 10:12:54;;;;;;;1.30;1.00;;;21.30;68.30;;;;;;4899327;29;20046;-77
2023/08/27 10:15:21;;;;;;;1.42;1.08;;;21.30;68.20;;;;;;4899704;29;20045;-77
2023/08/27 10:17:47;;;;;;;0.80;0.80;;;21.40;68.20;;;;;;4897486;29;20048;-77
2023/08/27 10:20:13;;;;;;;1.27;0.90;;;21.50;68.10;;;;;;4897657;29;20063;-77
2023/08/27 10:22:41;;;;;;;1.02;0.93;;;21.60;68.00;;;;;;4897584;29;20048;-76
2023/08/27 10:25:08;;;;;;;1.38;1.13;;;21.70;67.90;;;;;;4897877;29;20056;-77
2023/08/27 10:27:35;;;;;;;1.30;0.90;;;21.70;67.80;;;;;;4897796;29;20036;-78
2023/08/27 10:30:07;;;;;;;1.70;1.20;;;21.90;67.80;;;;;;4897693;29;20032;-77
2023/08/27 10:32:33;;;;;;;1.10;1.00;;;21.90;67.70;;;;;;4898120;29;20095;-76
2023/08/27 10:35:00;;;;;;;0.95;0.95;;;22.00;67.60;;;;;;4897948;29;20055;-78
2023/08/27 10:37:28;;;;;;;0.70;0.70;;;22.10;67.60;;;;;;4882249;29;20036;-76
2023/08/27 10:39:57;;;;;;;1.13;1.00;;;22.20;67.60;;;;;;4897251;29;20112;-77
2023/08/27 10:42:36;;;;;;;1.00;0.90;;;22.30;67.50;;;;;;4898474;29;20040;-77
2023/08/27 10:45:14;;;;;;;0.80;0.80;;;22.30;67.60;;;;;;4897878;29;20045;-77
2023/08/27 10:47:40;;;;;;;1.23;0.80;;;22.30;67.50;;;;;;4897547;29;20067;-77
2023/08/27 10:50:06;;;;;;;1.52;0.90;;;22.40;67.40;;;;;;4882017;29;20115;-77
2023/08/27 10:52:49;;;;;;;0.95;0.93;;;22.40;67.40;;;;;;4899165;29;20088;-78
2023/08/27 10:55:19;;;;;;;0.85;0.80;;;22.50;67.50;;;;;;4897763;29;20386;-77
2023/08/27 10:57:45;;;;;;;0.73;0.73;;;22.50;67.40;;;;;;4897426;29;20031;-77
2023/08/27 11:00:12;;;;;;;1.77;1.00;;;22.50;67.30;;;;;;4912990;29;20112;-77
2023/08/27 11:02:59;;;;;;;0.73;0.73;;;22.60;67.40;;;;;;4899058;29;20044;-76
2023/08/27 11:05:29;;;;;;;1.00;0.90;;;22.60;67.40;;;;;;4897541;29;20055;-77
2023/08/27 11:07:59;;;;;;;0.75;0.75;;;22.60;67.30;;;;;;4881806;29;20032;-77
2023/08/27 11:10:32;;;;;;;0.80;0.80;;;22.60;67.30;;;;;;4897601;29;20029;-77
2023/08/27 11:12:58;;;;;;;1.13;0.82;;;22.60;67.30;;;;;;4897230;29;20131;-77
2023/08/27 11:15:32;;;;;;;0.70;0.70;;;22.60;67.20;;;;;;4898750;29;20088;-77
2023/08/27 11:17:59;;;;;;;1.00;0.90;;;22.70;67.30;;;;;;4912681;29;20053;-77
2023/08/27 11:20:27;;;;;;;0.65;0.65;;;22.70;67.20;;;;;;4897553;29;20068;-77
2023/08/27 11:23:08;;;;;;;1.80;0.80;;;22.70;67.20;;;;;;4897084;29;20040;-77
2023/08/27 11:25:36;;;;;;;0.95;0.80;;;22.70;67.30;;;;;;4897565;29;20056;-78
2023/08/27 11:28:04;;;;;;;0.77;0.70;;;22.70;67.20;;;;;;4897406;29;20029;-77
2023/08/27 11:30:30;;;;;;;0.77;0.77;;;22.70;67.20;;;;;;4897901;29;20044;-77
2023/08/27 11:32:56;;;;;;;0.90;0.90;;;22.70;67.10;;;;;;4912779;29;20044;-77
2023/08/27 11:35:31;;;;;;;0.55;0.55;;;22.70;67.10;;;;;;4898034;29;20025;-76
2023/08/27 11:37:57;;;;;;;0.80;0.80;;;22.80;67.10;;;;;;4881413;29;20041;-76
2023/08/27 11:40:25;;;;;;;1.00;0.88;;;22.80;67.00;;;;;;4897022;29;20033;-75
2023/08/27 11:42:56;;;;;;;0.90;0.90;;;22.80;66.90;;;;;;4898190;29;20533;-76
2023/08/27 11:45:39;;;;;;;2.30;0.90;;;22.80;66.90;;;;;;4912618;29;20044;-75
2023/08/27 11:48:06;;;;;;;0.77;0.77;;;22.80;66.80;;;;;;4898807;29;20033;-77
2023/08/27 11:50:42;;;;;;;1.02;0.90;;;22.70;66.70;;;;;;4897742;29;20124;-76
2023/08/27 11:53:08;;;;;;;1.13;0.98;;;22.80;66.80;;;;;;4898043;29;20033;-75
2023/08/27 11:55:34;;;;;;;1.55;1.08;;;22.70;66.80;;;;;;4897180;29;20390;-76
2023/08/27 11:58:00;;;;;;;1.25;1.00;;;22.70;66.80;;;;;;4881692;29;20037;-76
2023/08/27 12:00:26;;;;;;;1.05;0.95;;;22.70;66.80;;;;;;4882261;29;20041;-76
2023/08/27 12:02:54;;;;;;;2.22;0.95;;;22.60;66.80;;;;;;4898278;29;20168;-76
2023/08/27 12:05:20;;;;;;;1.30;1.00;;;22.60;66.80;;;;;;4897821;29;20033;-78
2023/08/27 12:07:46;;;;;;;1.85;1.00;;;22.60;66.90;;;;;;4882314;29;20091;-76
2023/08/27 12:10:14;;;;;;;1.80;1.30;;;22.50;66.90;;;;;;4901259;29;20127;-75
2023/08/27 12:12:40;;;;;;;2.03;1.30;;;22.50;66.90;;;;;;4901015;29;20048;-76
2023/08/27 12:15:07;;;;;;;2.28;1.05;;;22.50;67.00;;;;;;4884609;29;20394;-76
2023/08/27 12:17:34;;;;;;;0.80;0.80;;;22.40;67.00;;;;;;4900917;29;20109;-76
2023/08/27 12:20:01;;;;;;;1.65;1.00;;;22.40;67.00;;;;;;4885194;29;20482;-76
2023/08/27 12:22:26;;;;;;;1.27;1.00;;;22.40;67.00;;;;;;4915457;29;20064;-77
2023/08/27 12:24:54;;;;;;;1.13;0.80;;;22.30;67.10;;;;;;4899842;29;20446;-76
2023/08/27 12:27:22;;;;;;;1.13;0.82;;;22.30;67.10;;;;;;4900775;29;20040;-76
2023/08/27 12:29:52;;;;;;;2.60;0.80;;;22.30;67.20;;;;;;4900668;29;20127;-77
2023/08/27 12:32:21;;;;;;;0.93;0.80;;;22.20;67.20;;;;;;4900843;29;20032;-76
2023/08/27 12:34:51;;;;;;;1.55;0.90;;;22.20;67.30;;;;;;4900017;29;20493;-77
2023/08/27 12:37:19;;;;;;;1.60;0.90;;;22.20;67.30;;;;;;4900122;29;20447;-76
2023/08/27 12:39:46;;;;;;;1.40;0.90;;;22.20;67.30;;;;;;4899776;29;20127;-77
2023/08/27 12:42:14;;;;;;;0.80;0.80;;;22.20;67.40;;;;;;4900338;29;20045;-76
2023/08/27 12:44:40;;;;;;;1.40;0.90;;;22.20;67.40;;;;;;4900426;29;20041;-77
2023/08/27 12:47:07;;;;;;;5.63;1.00;;;22.10;67.40;;;;;;4899865;29;20039;-77
2023/08/27 12:49:34;;;;;;;1.00;0.90;;;22.10;67.50;;;;;;4900556;29;20426;-77